createdAt,value
2017-07-25T00:00:43.438Z,17.49
2017-07-25T00:01:45.325Z,17.41
2017-07-25T00:02:47.139Z,17.31
2017-07-25T00:03:48.965Z,17.28
2017-07-25T00:04:50.837Z,17.22
2017-07-25T00:05:52.724Z,17.31
2017-07-25T00:06:54.595Z,17.22
2017-07-25T00:08:08.734Z,17.25
2017-07-25T00:09:10.600Z,17.26
2017-07-25T00:10:12.473Z,17.25
2017-07-25T00:11:14.359Z,17.22
2017-07-25T00:12:16.191Z,17.21
2017-07-25T00:13:18.024Z,17.31
2017-07-25T00:14:19.917Z,17.22
2017-07-25T00:15:21.801Z,17.11
2017-07-25T00:16:23.672Z,17.14
2017-07-25T00:17:37.812Z,16.97
2017-07-25T00:18:39.684Z,16.86
2017-07-25T00:19:41.573Z,16.96
2017-07-25T00:20:43.466Z,16.97
2017-07-25T00:21:45.272Z,16.88
2017-07-25T00:22:47.081Z,16.93
2017-07-25T00:23:48.945Z,16.83
2017-07-25T00:24:50.838Z,16.85
2017-07-25T00:25:52.728Z,16.75
2017-07-25T00:27:06.924Z,16.78
2017-07-25T00:28:08.787Z,16.73
2017-07-25T00:29:10.677Z,16.86
2017-07-25T00:30:12.563Z,16.70
2017-07-25T00:31:14.374Z,16.73
2017-07-25T00:32:16.202Z,16.71
2017-07-25T00:33:18.069Z,16.60
2017-07-25T00:34:19.959Z,16.63
2017-07-25T00:35:21.828Z,16.63
2017-07-25T00:36:35.975Z,16.71
2017-07-25T00:37:37.838Z,16.68
2017-07-25T00:38:39.703Z,16.64
2017-07-25T00:39:41.572Z,16.71
2017-07-25T00:40:43.401Z,16.63
2017-07-25T00:41:45.206Z,16.63
2017-07-25T00:42:47.079Z,16.68
2017-07-25T00:43:48.975Z,16.64
2017-07-25T00:44:50.864Z,16.64
2017-07-25T00:46:05.001Z,16.64
2017-07-25T00:47:06.865Z,16.67
2017-07-25T00:48:08.733Z,16.68
2017-07-25T00:49:10.597Z,16.75
2017-07-25T00:50:12.409Z,16.76
2017-07-25T00:51:14.213Z,16.73
2017-07-25T00:52:16.077Z,16.75
2017-07-25T00:53:17.947Z,16.82
2017-07-25T00:54:19.837Z,16.85
2017-07-25T00:55:33.982Z,16.83
2017-07-25T00:56:35.871Z,16.78
2017-07-25T00:57:37.763Z,16.79
2017-07-25T00:58:39.627Z,16.86
2017-07-25T00:59:41.462Z,16.88
2017-07-25T01:00:43.287Z,16.70
2017-07-25T01:01:45.158Z,16.85
2017-07-25T01:02:47.023Z,16.82
2017-07-25T01:03:48.891Z,16.88
2017-07-25T01:05:03.035Z,16.86
2017-07-25T01:06:04.911Z,16.81
2017-07-25T01:07:06.797Z,16.79
2017-07-25T01:08:08.686Z,16.88
2017-07-25T01:09:10.516Z,16.83
2017-07-25T01:10:12.322Z,16.83
2017-07-25T01:11:14.185Z,16.85
2017-07-25T01:12:16.053Z,16.88
2017-07-25T01:13:17.923Z,16.85
2017-07-25T01:14:32.062Z,16.88
2017-07-25T01:15:33.927Z,16.86
2017-07-25T01:16:35.796Z,16.81
2017-07-25T01:17:37.659Z,16.88
2017-07-25T01:18:39.460Z,16.66
2017-07-25T01:19:41.280Z,16.57
2017-07-25T01:20:43.137Z,16.53
2017-07-25T01:21:45.023Z,16.58
2017-07-25T01:22:46.889Z,16.48
2017-07-25T01:24:01.033Z,16.49
2017-07-25T01:25:02.903Z,16.50
2017-07-25T01:26:04.791Z,16.52
2017-07-25T01:27:06.662Z,16.52
2017-07-25T01:28:08.491Z,16.57
2017-07-25T01:29:10.293Z,16.50
2017-07-25T01:30:12.125Z,16.45
2017-07-25T01:31:13.929Z,16.45
2017-07-25T01:32:15.735Z,16.34
2017-07-25T01:33:29.873Z,16.30
2017-07-25T01:34:31.744Z,16.34
2017-07-25T01:35:33.637Z,16.38
2017-07-25T01:36:35.505Z,16.41
2017-07-25T01:37:37.310Z,16.31
2017-07-25T01:38:39.141Z,16.34
2017-07-25T01:39:41.035Z,16.28
2017-07-25T01:40:42.917Z,16.35
2017-07-25T01:41:44.783Z,16.35
2017-07-25T01:42:58.927Z,16.30
2017-07-25T01:44:00.792Z,16.21
2017-07-25T01:45:02.657Z,16.08
2017-07-25T01:46:04.527Z,16.20
2017-07-25T01:47:06.358Z,16.05
2017-07-25T01:48:08.179Z,16.02
2017-07-25T01:49:10.050Z,16.01
2017-07-25T01:50:11.919Z,16.12
2017-07-25T01:51:13.807Z,16.12
2017-07-25T01:52:28.025Z,16.21
2017-07-25T01:53:29.886Z,16.25
2017-07-25T01:54:31.752Z,16.24
2017-07-25T01:55:33.616Z,16.27
2017-07-25T01:56:35.421Z,16.34
2017-07-25T01:57:37.251Z,16.31
2017-07-25T01:58:39.138Z,16.27
2017-07-25T01:59:41.007Z,16.31
2017-07-25T02:00:42.895Z,16.30
2017-07-25T02:01:57.036Z,16.24
2017-07-25T02:02:58.903Z,16.25
2017-07-25T02:04:00.774Z,16.23
2017-07-25T02:05:02.663Z,16.20
2017-07-25T02:06:04.490Z,16.24
2017-07-25T02:07:06.295Z,16.24
2017-07-25T02:08:08.167Z,16.24
2017-07-25T02:09:10.024Z,16.24
2017-07-25T02:10:11.895Z,16.12
2017-07-25T02:11:26.062Z,16.20
2017-07-25T02:12:27.948Z,16.21
2017-07-25T02:13:29.821Z,16.20
2017-07-25T02:14:31.713Z,16.14
2017-07-25T02:15:33.542Z,16.20
2017-07-25T02:16:35.347Z,16.15
2017-07-25T02:17:37.211Z,16.25
2017-07-25T02:18:39.074Z,16.31
2017-07-25T02:19:40.938Z,16.45
2017-07-25T02:20:55.079Z,16.27
2017-07-25T02:21:56.943Z,16.21
2017-07-25T02:22:58.813Z,16.28
2017-07-25T02:24:00.684Z,16.35
2017-07-25T02:25:02.527Z,16.34
2017-07-25T02:26:04.344Z,16.33
2017-07-25T02:27:06.233Z,16.35
2017-07-25T02:28:08.125Z,16.46
2017-07-25T02:29:10.011Z,16.39
2017-07-25T02:30:24.149Z,16.46
2017-07-25T02:31:26.014Z,16.43
2017-07-25T02:32:27.885Z,16.34
2017-07-25T02:33:29.748Z,16.39
2017-07-25T02:34:31.558Z,16.31
2017-07-25T02:35:33.360Z,16.34
2017-07-25T02:36:35.228Z,16.39
2017-07-25T02:37:37.117Z,16.27
2017-07-25T02:38:39.006Z,16.28
2017-07-25T02:39:53.146Z,16.28
2017-07-25T02:40:55.017Z,16.28
2017-07-25T02:41:56.906Z,16.21
2017-07-25T02:42:58.775Z,16.24
2017-07-25T02:44:00.587Z,16.20
2017-07-25T02:45:02.382Z,16.25
2017-07-25T02:46:04.258Z,16.28
2017-07-25T02:47:06.146Z,16.17
2017-07-25T02:48:08.037Z,16.27
2017-07-25T02:49:22.197Z,16.25
2017-07-25T02:50:24.068Z,16.23
2017-07-25T02:51:25.933Z,16.21
2017-07-25T02:52:27.795Z,16.21
2017-07-25T02:53:29.600Z,16.20
2017-07-25T02:54:31.407Z,16.15
2017-07-25T02:55:33.272Z,16.15
2017-07-25T02:56:35.164Z,16.00
2017-07-25T02:57:37.053Z,15.90
2017-07-25T02:58:51.218Z,15.89
2017-07-25T02:59:53.083Z,15.75
2017-07-25T03:00:54.954Z,15.84
2017-07-25T03:01:56.820Z,15.96
2017-07-25T03:02:58.619Z,16.02
2017-07-25T03:04:00.427Z,16.01
2017-07-25T03:05:02.317Z,16.00
2017-07-25T03:06:04.193Z,15.90
2017-07-25T03:07:06.077Z,15.97
2017-07-25T03:08:20.219Z,16.05
2017-07-25T03:09:22.085Z,16.00
2017-07-25T03:10:23.951Z,15.97
2017-07-25T03:11:25.823Z,15.97
2017-07-25T03:12:27.652Z,15.90
2017-07-25T03:13:29.456Z,15.84
2017-07-25T03:14:31.323Z,15.74
2017-07-25T03:15:33.193Z,15.78
2017-07-25T03:16:35.080Z,15.78
2017-07-25T03:17:49.221Z,15.75
2017-07-25T03:18:51.091Z,15.68
2017-07-25T03:19:52.956Z,15.76
2017-07-25T03:20:54.821Z,15.65
2017-07-25T03:21:56.623Z,15.80
2017-07-25T03:22:58.431Z,15.72
2017-07-25T03:24:00.297Z,15.75
2017-07-25T03:25:02.163Z,15.76
2017-07-25T03:26:04.029Z,15.74
2017-07-25T03:27:18.170Z,15.75
2017-07-25T03:28:20.042Z,15.71
2017-07-25T03:29:21.932Z,15.72
2017-07-25T03:30:23.827Z,15.74
2017-07-25T03:31:25.629Z,15.72
2017-07-25T03:32:27.462Z,15.74
2017-07-25T03:33:29.356Z,15.75
2017-07-25T03:34:31.251Z,15.78
2017-07-25T03:35:33.141Z,15.87
2017-07-25T03:36:47.285Z,15.86
2017-07-25T03:37:49.173Z,15.89
2017-07-25T03:38:51.065Z,15.87
2017-07-25T03:39:52.931Z,16.00
2017-07-25T03:40:54.746Z,15.94
2017-07-25T03:41:56.573Z,16.07
2017-07-25T03:42:58.469Z,15.97
2017-07-25T03:44:00.336Z,16.07
2017-07-25T03:45:02.227Z,16.02
2017-07-25T03:46:16.377Z,16.05
2017-07-25T03:47:18.269Z,16.01
2017-07-25T03:48:20.166Z,16.15
2017-07-25T03:49:22.033Z,16.01
2017-07-25T03:50:23.839Z,15.97
2017-07-25T03:51:25.671Z,15.96
2017-07-25T03:52:27.546Z,15.90
2017-07-25T03:53:29.430Z,15.93
2017-07-25T03:54:31.301Z,16.02
2017-07-25T03:55:45.445Z,16.05
2017-07-25T03:56:47.315Z,15.96
2017-07-25T03:57:49.203Z,16.07
2017-07-25T03:58:51.074Z,16.01
2017-07-25T03:59:52.885Z,15.94
2017-07-25T04:00:54.690Z,15.97
2017-07-25T04:01:56.558Z,16.05
2017-07-25T04:02:58.421Z,16.07
2017-07-25T04:04:00.295Z,16.07
2017-07-25T04:05:14.465Z,16.07
2017-07-25T04:06:16.358Z,16.01
2017-07-25T04:07:18.246Z,15.93
2017-07-25T04:08:20.120Z,15.80
2017-07-25T04:09:21.952Z,15.80
2017-07-25T04:10:23.756Z,15.89
2017-07-25T04:11:25.632Z,15.92
2017-07-25T04:12:27.519Z,15.89
2017-07-25T04:13:29.392Z,15.90
2017-07-25T04:14:43.566Z,15.90
2017-07-25T04:15:45.456Z,15.89
2017-07-25T04:16:47.354Z,15.80
2017-07-25T04:17:49.247Z,15.74
2017-07-25T04:18:51.075Z,15.93
2017-07-25T04:19:52.886Z,15.96
2017-07-25T04:20:54.754Z,15.83
2017-07-25T04:21:56.627Z,15.96
2017-07-25T04:22:58.489Z,16.00
2017-07-25T04:24:12.639Z,16.08
2017-07-25T04:25:14.508Z,16.08
2017-07-25T04:26:16.381Z,16.05
2017-07-25T04:27:18.283Z,16.12
2017-07-25T04:28:20.116Z,16.14
2017-07-25T04:29:21.944Z,16.21
2017-07-25T04:30:23.835Z,16.41
2017-07-25T04:31:25.708Z,16.39
2017-07-25T04:32:27.603Z,16.46
2017-07-25T04:33:41.821Z,16.48
2017-07-25T04:34:43.692Z,16.60
2017-07-25T04:35:45.558Z,16.45
2017-07-25T04:36:47.436Z,16.46
2017-07-25T04:37:49.241Z,16.33
2017-07-25T04:38:51.050Z,16.27
2017-07-25T04:39:52.926Z,16.48
2017-07-25T04:40:54.819Z,16.46
2017-07-25T04:41:56.719Z,16.48
2017-07-25T04:43:10.882Z,16.41
2017-07-25T04:44:12.755Z,16.34
2017-07-25T04:45:14.624Z,16.52
2017-07-25T04:46:16.494Z,16.45
2017-07-25T04:47:18.307Z,16.60
2017-07-25T04:48:20.116Z,16.64
2017-07-25T04:49:21.988Z,16.66
2017-07-25T04:50:23.861Z,16.60
2017-07-25T04:51:25.754Z,16.60
2017-07-25T04:52:39.902Z,16.49
2017-07-25T04:53:41.767Z,16.45
2017-07-25T04:54:43.642Z,16.42
2017-07-25T04:55:45.540Z,16.34
2017-07-25T04:56:47.380Z,16.39
2017-07-25T04:57:49.211Z,16.45
2017-07-25T04:58:51.102Z,16.46
2017-07-25T04:59:52.977Z,16.53
2017-07-25T05:00:54.869Z,16.56
2017-07-25T05:02:09.067Z,16.73
2017-07-25T05:03:10.965Z,16.76
2017-07-25T05:04:12.855Z,16.63
2017-07-25T05:05:14.733Z,16.58
2017-07-25T05:06:16.565Z,16.57
2017-07-25T05:07:18.372Z,16.58
2017-07-25T05:08:20.251Z,16.60
2017-07-25T05:09:22.146Z,16.53
2017-07-25T05:10:24.036Z,16.45
2017-07-25T05:11:38.208Z,16.49
2017-07-25T05:12:40.098Z,16.49
2017-07-25T05:13:41.971Z,16.48
2017-07-25T05:14:43.847Z,16.45
2017-07-25T05:15:45.681Z,16.45
2017-07-25T05:16:47.489Z,16.56
2017-07-25T05:17:49.359Z,16.53
2017-07-25T05:18:51.234Z,16.60
2017-07-25T05:19:53.126Z,16.67
2017-07-25T05:21:07.260Z,16.63
2017-07-25T05:22:09.146Z,16.53
2017-07-25T05:23:11.046Z,16.46
2017-07-25T05:24:12.934Z,16.50
2017-07-25T05:25:14.749Z,16.53
2017-07-25T05:26:16.580Z,16.46
2017-07-25T05:27:18.450Z,16.45
2017-07-25T05:28:20.324Z,16.50
2017-07-25T05:29:22.220Z,16.58
2017-07-25T05:30:36.395Z,16.64
2017-07-25T05:31:38.299Z,16.58
2017-07-25T05:32:40.194Z,16.42
2017-07-25T05:33:42.066Z,16.56
2017-07-25T05:34:43.875Z,16.52
2017-07-25T05:35:45.686Z,16.56
2017-07-25T05:36:47.579Z,16.57
2017-07-25T05:37:49.487Z,16.63
2017-07-25T05:38:51.359Z,16.68
2017-07-25T05:40:05.525Z,16.75
2017-07-25T05:41:07.399Z,16.83
2017-07-25T05:42:09.296Z,16.82
2017-07-25T05:43:11.169Z,16.85
2017-07-25T05:44:13.000Z,17.01
2017-07-25T05:45:14.821Z,16.85
2017-07-25T05:46:16.678Z,16.63
2017-07-25T05:47:18.543Z,16.42
2017-07-25T05:48:20.416Z,16.57
2017-07-25T05:49:34.588Z,16.66
2017-07-25T05:50:36.462Z,16.67
2017-07-25T05:51:38.330Z,16.83
2017-07-25T05:52:40.213Z,16.88
2017-07-25T05:53:42.039Z,16.91
2017-07-25T05:54:43.850Z,16.91
2017-07-25T05:55:45.725Z,16.96
2017-07-25T05:56:47.620Z,16.93
2017-07-25T05:57:49.516Z,16.97
2017-07-25T05:59:03.690Z,16.94
2017-07-25T06:00:05.558Z,16.83
2017-07-25T06:01:07.453Z,16.76
2017-07-25T06:02:09.334Z,16.70
2017-07-25T06:03:11.137Z,16.81
2017-07-25T06:04:12.943Z,16.83
2017-07-25T06:05:14.809Z,16.85
2017-07-25T06:06:16.683Z,16.85
2017-07-25T06:07:18.577Z,16.73
2017-07-25T06:08:32.750Z,16.68
2017-07-25T06:09:34.618Z,16.60
2017-07-25T06:10:36.517Z,16.58
2017-07-25T06:11:38.409Z,16.63
2017-07-25T06:12:40.241Z,16.67
2017-07-25T06:13:42.048Z,16.61
2017-07-25T06:14:43.924Z,16.57
2017-07-25T06:15:45.816Z,16.61
2017-07-25T06:16:47.689Z,16.75
2017-07-25T06:18:01.864Z,16.82
2017-07-25T06:19:03.755Z,16.85
2017-07-25T06:20:05.632Z,16.86
2017-07-25T06:21:07.498Z,16.78
2017-07-25T06:22:09.309Z,16.68
2017-07-25T06:23:11.124Z,16.71
2017-07-25T06:24:13.017Z,16.63
2017-07-25T06:25:14.883Z,16.63
2017-07-25T06:26:16.758Z,16.61
2017-07-25T06:27:30.927Z,16.81
2017-07-25T06:28:32.792Z,16.98
2017-07-25T06:29:34.665Z,16.85
2017-07-25T06:30:36.541Z,16.85
2017-07-25T06:31:38.377Z,16.91
2017-07-25T06:32:40.207Z,16.93
2017-07-25T06:33:42.079Z,16.98
2017-07-25T06:34:43.952Z,17.00
2017-07-25T06:35:45.821Z,17.04
2017-07-25T06:36:59.993Z,17.37
2017-07-25T06:38:01.887Z,17.62
2017-07-25T06:39:03.787Z,17.64
2017-07-25T06:40:05.680Z,17.66
2017-07-25T06:41:07.496Z,17.54
2017-07-25T06:42:09.328Z,17.64
2017-07-25T06:43:11.203Z,17.86
2017-07-25T06:44:13.092Z,17.96
2017-07-25T06:45:14.963Z,17.95
2017-07-25T06:46:29.114Z,17.84
2017-07-25T06:47:31.009Z,17.82
2017-07-25T06:48:32.907Z,17.82
2017-07-25T06:49:34.803Z,17.95
2017-07-25T06:50:36.621Z,17.97
2017-07-25T06:51:38.454Z,18.03
2017-07-25T06:52:40.332Z,18.11
2017-07-25T06:53:42.230Z,18.23
2017-07-25T06:54:44.122Z,18.36
2017-07-25T06:55:58.293Z,18.48
2017-07-25T06:57:00.156Z,18.39
2017-07-25T06:58:02.034Z,18.54
2017-07-25T06:59:03.907Z,18.75
2017-07-25T07:00:05.720Z,18.78
2017-07-25T07:01:07.535Z,18.90
2017-07-25T07:02:09.404Z,19.07
2017-07-25T07:03:11.279Z,19.13
2017-07-25T07:04:13.169Z,19.16
2017-07-25T07:05:27.329Z,19.23
2017-07-25T07:06:29.216Z,19.19
2017-07-25T07:07:31.105Z,19.25
2017-07-25T07:08:32.993Z,19.43
2017-07-25T07:09:34.790Z,19.37
2017-07-25T07:10:36.589Z,19.28
2017-07-25T07:11:38.456Z,19.07
2017-07-25T07:12:40.345Z,19.04
2017-07-25T07:13:42.209Z,19.13
2017-07-25T07:14:56.362Z,19.25
2017-07-25T07:15:58.229Z,19.22
2017-07-25T07:17:00.118Z,19.29
2017-07-25T07:18:02.005Z,19.22
2017-07-25T07:19:03.806Z,19.26
2017-07-25T07:20:05.610Z,19.18
2017-07-25T07:21:07.471Z,19.06
2017-07-25T07:22:09.340Z,19.02
2017-07-25T07:23:11.216Z,19.18
2017-07-25T07:24:25.356Z,19.36
2017-07-25T07:25:27.247Z,19.43
2017-07-25T07:26:29.125Z,19.47
2017-07-25T07:27:30.990Z,19.63
2017-07-25T07:28:32.822Z,19.62
2017-07-25T07:29:34.651Z,19.65
2017-07-25T07:30:36.532Z,19.69
2017-07-25T07:31:38.475Z,19.74
2017-07-25T07:32:40.370Z,19.84
2017-07-25T07:33:54.528Z,19.83
2017-07-25T07:34:56.391Z,19.74
2017-07-25T07:35:58.253Z,19.59
2017-07-25T07:37:00.183Z,19.74
2017-07-25T07:38:01.962Z,19.68
2017-07-25T07:39:03.766Z,19.87
2017-07-25T07:40:05.655Z,20.05
2017-07-25T07:41:07.542Z,20.10
2017-07-25T07:42:09.406Z,20.31
2017-07-25T07:43:23.546Z,20.42
2017-07-25T07:44:25.430Z,20.67
2017-07-25T07:45:27.294Z,20.73
2017-07-25T07:46:29.163Z,20.84
2017-07-25T07:47:30.990Z,20.91
2017-07-25T07:48:32.796Z,20.99
2017-07-25T07:49:34.683Z,20.98
2017-07-25T07:50:36.544Z,20.87
2017-07-25T07:51:38.435Z,20.84
2017-07-25T07:52:52.595Z,20.99
2017-07-25T07:53:54.455Z,21.24
2017-07-25T07:54:56.325Z,21.46
2017-07-25T07:55:58.211Z,21.50
2017-07-25T07:57:00.044Z,21.61
2017-07-25T07:58:01.882Z,21.82
2017-07-25T07:59:03.767Z,21.91
2017-07-25T08:00:05.631Z,22.09
2017-07-25T08:01:07.522Z,22.27
2017-07-25T08:02:21.661Z,22.45
2017-07-25T08:03:23.549Z,22.62
2017-07-25T08:04:25.434Z,22.79
2017-07-25T08:05:27.299Z,22.75
2017-07-25T08:06:29.103Z,22.76
2017-07-25T08:07:30.922Z,22.83
2017-07-25T08:08:32.836Z,22.73
2017-07-25T08:09:34.674Z,22.88
2017-07-25T08:10:36.564Z,23.01
2017-07-25T08:11:50.725Z,23.13
2017-07-25T08:12:52.591Z,23.28
2017-07-25T08:13:54.483Z,23.40
2017-07-25T08:14:56.346Z,23.42
2017-07-25T08:15:58.187Z,23.39
2017-07-25T08:16:59.994Z,23.05
2017-07-25T08:18:01.885Z,22.83
2017-07-25T08:19:03.751Z,22.64
2017-07-25T08:20:05.639Z,22.57
2017-07-25T08:21:19.801Z,22.75
2017-07-25T08:22:21.686Z,22.77
2017-07-25T08:23:23.556Z,22.51
2017-07-25T08:24:25.442Z,22.35
2017-07-25T08:25:27.249Z,22.35
2017-07-25T08:26:29.079Z,22.31
2017-07-25T08:27:30.976Z,22.27
2017-07-25T08:28:32.859Z,22.36
2017-07-25T08:29:34.731Z,22.52
2017-07-25T08:30:48.864Z,22.80
2017-07-25T08:31:50.727Z,23.10
2017-07-25T08:32:52.616Z,23.27
2017-07-25T08:33:54.505Z,23.39
2017-07-25T08:34:56.311Z,23.58
2017-07-25T08:35:58.141Z,23.53
2017-07-25T08:36:59.999Z,23.42
2017-07-25T08:38:01.861Z,23.07
2017-07-25T08:39:03.735Z,22.79
2017-07-25T08:40:17.891Z,22.65
2017-07-25T08:41:19.778Z,22.65
2017-07-25T08:42:21.644Z,22.62
2017-07-25T08:43:23.507Z,22.55
2017-07-25T08:44:25.312Z,22.39
2017-07-25T08:45:27.173Z,22.24
2017-07-25T08:46:29.024Z,22.30
2017-07-25T08:47:30.878Z,22.43
2017-07-25T08:48:32.744Z,22.51
2017-07-25T08:49:46.905Z,22.57
2017-07-25T08:50:48.770Z,22.55
2017-07-25T08:51:50.690Z,22.61
2017-07-25T08:52:52.554Z,22.64
2017-07-25T08:53:54.386Z,22.70
2017-07-25T08:54:56.184Z,22.54
2017-07-25T08:55:58.071Z,22.51
2017-07-25T08:56:59.931Z,22.30
2017-07-25T08:58:01.890Z,22.07
2017-07-25T08:59:16.051Z,22.12
2017-07-25T09:00:18.003Z,22.22
2017-07-25T09:01:19.889Z,22.36
2017-07-25T09:02:21.777Z,22.33
2017-07-25T09:03:23.605Z,22.36
2017-07-25T09:04:25.401Z,22.40
2017-07-25T09:05:27.254Z,22.33
2017-07-25T09:06:29.160Z,22.24
2017-07-25T09:07:31.048Z,22.24
2017-07-25T09:08:45.208Z,22.31
2017-07-25T09:09:47.096Z,22.27
2017-07-25T09:10:48.987Z,22.36
2017-07-25T09:11:50.869Z,22.40
2017-07-25T09:12:52.674Z,22.57
2017-07-25T09:13:54.477Z,22.72
2017-07-25T09:14:56.341Z,22.68
2017-07-25T09:15:58.202Z,22.57
2017-07-25T09:17:00.068Z,22.60
2017-07-25T09:18:14.226Z,22.33
2017-07-25T09:19:16.114Z,22.18
2017-07-25T09:20:17.979Z,22.06
2017-07-25T09:21:19.863Z,21.91
2017-07-25T09:22:21.670Z,21.82
2017-07-25T09:23:23.474Z,21.67
2017-07-25T09:24:25.360Z,21.44
2017-07-25T09:25:27.223Z,21.32
2017-07-25T09:26:29.124Z,20.92
2017-07-25T09:27:43.270Z,20.70
2017-07-25T09:28:45.140Z,20.69
2017-07-25T09:29:47.031Z,20.80
2017-07-25T09:30:48.919Z,20.79
2017-07-25T09:31:50.747Z,20.82
2017-07-25T09:32:52.568Z,20.91
2017-07-25T09:33:54.428Z,20.98
2017-07-25T09:34:56.291Z,20.94
2017-07-25T09:35:58.153Z,20.99
2017-07-25T09:37:12.289Z,21.14
2017-07-25T09:38:14.156Z,21.12
2017-07-25T09:39:16.049Z,21.13
2017-07-25T09:40:17.933Z,21.14
2017-07-25T09:41:19.736Z,21.01
2017-07-25T09:42:21.538Z,20.92
2017-07-25T09:43:23.408Z,20.92
2017-07-25T09:44:25.274Z,20.99
2017-07-25T09:45:27.161Z,20.94
2017-07-25T09:46:41.295Z,20.76
2017-07-25T09:47:43.178Z,20.70
2017-07-25T09:48:45.045Z,20.91
2017-07-25T09:49:46.929Z,21.13
2017-07-25T09:50:48.737Z,21.54
2017-07-25T09:51:50.536Z,21.72
2017-07-25T09:52:52.400Z,21.80
2017-07-25T09:53:54.268Z,21.74
2017-07-25T09:54:56.149Z,21.92
2017-07-25T09:56:10.286Z,22.09
2017-07-25T09:57:12.151Z,22.30
2017-07-25T09:58:14.019Z,22.65
2017-07-25T09:59:15.912Z,23.04
2017-07-25T10:00:17.710Z,23.46
2017-07-25T10:01:19.510Z,23.48
2017-07-25T10:02:21.373Z,23.63
2017-07-25T10:03:23.239Z,23.75
2017-07-25T10:04:25.126Z,23.83
2017-07-25T10:05:39.261Z,23.65
2017-07-25T10:06:41.118Z,23.19
2017-07-25T10:07:42.989Z,22.76
2017-07-25T10:08:44.879Z,22.60
2017-07-25T10:09:46.710Z,22.39
2017-07-25T10:10:48.516Z,22.27
2017-07-25T10:11:50.400Z,22.20
2017-07-25T10:12:52.263Z,22.15
2017-07-25T10:13:54.121Z,22.14
2017-07-25T10:15:08.256Z,22.33
2017-07-25T10:16:10.144Z,22.36
2017-07-25T10:17:12.038Z,22.52
2017-07-25T10:18:13.922Z,22.58
2017-07-25T10:19:15.748Z,22.67
2017-07-25T10:20:17.550Z,22.68
2017-07-25T10:21:19.437Z,22.64
2017-07-25T10:22:21.291Z,22.58
2017-07-25T10:23:23.168Z,22.37
2017-07-25T10:24:37.304Z,22.33
2017-07-25T10:25:39.176Z,22.43
2017-07-25T10:26:41.052Z,22.33
2017-07-25T10:27:42.916Z,22.45
2017-07-25T10:28:44.743Z,22.27
2017-07-25T10:29:46.544Z,22.27
2017-07-25T10:30:48.411Z,22.24
2017-07-25T10:31:50.302Z,22.20
2017-07-25T10:32:52.184Z,22.25
2017-07-25T10:34:06.325Z,22.37
2017-07-25T10:35:08.211Z,22.31
2017-07-25T10:36:10.075Z,22.35
2017-07-25T10:37:11.943Z,22.47
2017-07-25T10:38:13.749Z,22.61
2017-07-25T10:39:15.579Z,22.88
2017-07-25T10:40:17.460Z,23.09
2017-07-25T10:41:19.331Z,23.51
2017-07-25T10:42:21.217Z,23.76
2017-07-25T10:43:35.351Z,23.98
2017-07-25T10:44:37.217Z,24.08
2017-07-25T10:45:39.079Z,24.09
2017-07-25T10:46:40.950Z,24.25
2017-07-25T10:47:42.806Z,24.40
2017-07-25T10:48:44.650Z,24.22
2017-07-25T10:49:46.536Z,24.16
2017-07-25T10:50:48.423Z,24.02
2017-07-25T10:51:50.295Z,23.76
2017-07-25T10:53:04.452Z,23.85
2017-07-25T10:54:06.321Z,24.03
2017-07-25T10:55:08.207Z,23.93
2017-07-25T10:56:10.076Z,23.57
2017-07-25T10:57:11.904Z,23.68
2017-07-25T10:58:13.707Z,23.66
2017-07-25T10:59:15.571Z,23.69
2017-07-25T11:00:17.441Z,23.75
2017-07-25T11:01:19.324Z,24.03
2017-07-25T11:02:33.459Z,23.94
2017-07-25T11:03:35.322Z,23.87
2017-07-25T11:04:37.189Z,23.66
2017-07-25T11:05:39.062Z,23.65
2017-07-25T11:06:40.866Z,23.76
2017-07-25T11:07:42.669Z,23.80
2017-07-25T11:08:44.553Z,24.00
2017-07-25T11:09:46.490Z,24.16
2017-07-25T11:10:48.381Z,24.45
2017-07-25T11:12:02.543Z,24.87
2017-07-25T11:13:04.428Z,25.02
2017-07-25T11:14:06.299Z,25.27
2017-07-25T11:15:08.164Z,25.10
2017-07-25T11:16:09.997Z,25.00
2017-07-25T11:17:11.828Z,25.06
2017-07-25T11:18:13.688Z,25.06
2017-07-25T11:19:15.560Z,25.06
2017-07-25T11:20:17.447Z,25.25
2017-07-25T11:21:31.614Z,25.45
2017-07-25T11:22:33.497Z,25.52
2017-07-25T11:23:35.399Z,25.60
2017-07-25T11:24:37.308Z,25.61
2017-07-25T11:25:39.138Z,25.65
2017-07-25T11:26:40.975Z,25.67
2017-07-25T11:27:42.918Z,25.83
2017-07-25T11:28:44.827Z,25.97
2017-07-25T11:29:46.749Z,25.92
2017-07-25T11:31:01.042Z,25.98
2017-07-25T11:32:02.949Z,26.15
2017-07-25T11:33:04.815Z,26.35
2017-07-25T11:34:06.750Z,26.60
2017-07-25T11:35:08.589Z,26.62
2017-07-25T11:36:10.464Z,26.30
2017-07-25T11:37:12.367Z,26.25
2017-07-25T11:38:14.258Z,26.09
2017-07-25T11:39:16.127Z,25.85
2017-07-25T11:40:30.262Z,25.77
2017-07-25T11:41:32.166Z,25.79
2017-07-25T11:42:34.040Z,25.87
2017-07-25T11:43:35.933Z,25.85
2017-07-25T11:44:37.763Z,25.99
2017-07-25T11:45:39.574Z,26.28
2017-07-25T11:46:41.462Z,26.51
2017-07-25T11:47:43.325Z,26.65
2017-07-25T11:48:45.193Z,26.48
2017-07-25T11:49:59.391Z,26.07
2017-07-25T11:51:01.305Z,25.65
2017-07-25T11:52:03.173Z,25.65
2017-07-25T11:53:05.076Z,25.64
2017-07-25T11:54:06.906Z,25.55
2017-07-25T11:55:08.820Z,25.35
2017-07-25T11:56:10.657Z,25.39
2017-07-25T11:57:12.532Z,25.69
2017-07-25T11:58:14.420Z,25.83
2017-07-25T11:59:28.586Z,25.58
2017-07-25T12:00:30.473Z,24.95
2017-07-25T12:01:32.336Z,24.60
2017-07-25T12:02:34.201Z,24.49
2017-07-25T12:03:36.010Z,24.52
2017-07-25T12:04:37.818Z,24.40
2017-07-25T12:05:39.711Z,24.20
2017-07-25T12:06:41.604Z,24.15
2017-07-25T12:07:43.464Z,23.58
2017-07-25T12:08:57.608Z,23.23
2017-07-25T12:09:59.499Z,23.50
2017-07-25T12:11:01.384Z,23.53
2017-07-25T12:12:03.328Z,23.95
2017-07-25T12:13:05.151Z,24.21
2017-07-25T12:14:06.971Z,24.58
2017-07-25T12:15:08.829Z,24.87
2017-07-25T12:16:10.712Z,25.10
2017-07-25T12:17:12.574Z,25.24
2017-07-25T12:18:26.719Z,25.42
2017-07-25T12:19:28.611Z,25.61
2017-07-25T12:20:30.491Z,25.76
2017-07-25T12:21:32.361Z,25.91
2017-07-25T12:22:34.190Z,25.91
2017-07-25T12:23:35.995Z,26.13
2017-07-25T12:24:37.861Z,26.26
2017-07-25T12:25:39.731Z,26.28
2017-07-25T12:26:41.609Z,26.40
2017-07-25T12:27:55.765Z,26.62
2017-07-25T12:28:57.654Z,26.84
2017-07-25T12:29:59.544Z,26.81
2017-07-25T12:31:01.438Z,26.81
2017-07-25T12:32:03.266Z,26.85
2017-07-25T12:33:05.092Z,26.97
2017-07-25T12:34:06.960Z,27.02
2017-07-25T12:35:08.827Z,27.04
2017-07-25T12:36:10.694Z,26.58
2017-07-25T12:37:24.853Z,26.06
2017-07-25T12:38:26.726Z,25.83
2017-07-25T12:39:28.615Z,25.36
2017-07-25T12:40:30.507Z,24.95
2017-07-25T12:41:32.336Z,24.55
2017-07-25T12:42:34.143Z,24.13
2017-07-25T12:43:36.031Z,23.98
2017-07-25T12:44:37.896Z,23.80
2017-07-25T12:45:39.785Z,23.65
2017-07-25T12:46:53.928Z,23.83
2017-07-25T12:47:55.822Z,24.08
2017-07-25T12:48:57.710Z,24.15
2017-07-25T12:49:59.568Z,24.32
2017-07-25T12:51:01.385Z,24.69
2017-07-25T12:52:03.181Z,24.95
2017-07-25T12:53:05.045Z,25.09
2017-07-25T12:54:06.911Z,25.39
2017-07-25T12:55:08.785Z,25.58
2017-07-25T12:56:22.952Z,25.75
2017-07-25T12:57:24.814Z,25.82
2017-07-25T12:58:26.679Z,25.95
2017-07-25T12:59:28.556Z,26.10
2017-07-25T13:00:30.383Z,26.32
2017-07-25T13:01:32.187Z,26.45
2017-07-25T13:02:34.078Z,26.50
2017-07-25T13:03:35.974Z,26.66
2017-07-25T13:04:37.859Z,26.73
2017-07-25T13:05:51.991Z,26.85
2017-07-25T13:06:53.856Z,26.94
2017-07-25T13:07:55.733Z,27.04
2017-07-25T13:08:57.622Z,27.04
2017-07-25T13:09:59.435Z,26.95
2017-07-25T13:11:01.270Z,26.97
2017-07-25T13:12:03.167Z,26.89
2017-07-25T13:13:05.052Z,26.85
2017-07-25T13:14:06.944Z,27.02
2017-07-25T13:15:21.105Z,26.92
2017-07-25T13:16:22.992Z,27.00
2017-07-25T13:17:24.868Z,27.17
2017-07-25T13:18:26.757Z,27.13
2017-07-25T13:19:28.592Z,27.36
2017-07-25T13:20:30.393Z,27.57
2017-07-25T13:21:32.284Z,27.54
2017-07-25T13:22:34.147Z,27.60
2017-07-25T13:23:36.017Z,27.44
2017-07-25T13:24:50.161Z,27.29
2017-07-25T13:25:52.050Z,27.29
2017-07-25T13:26:53.944Z,27.21
2017-07-25T13:27:55.806Z,27.04
2017-07-25T13:28:57.613Z,27.02
2017-07-25T13:29:59.446Z,26.99
2017-07-25T13:31:01.335Z,26.91
2017-07-25T13:32:03.236Z,26.97
2017-07-25T13:33:05.158Z,26.97
2017-07-25T13:34:19.319Z,27.06